createdAt,value
2019-01-18T00:01:26.227Z,48.20
2019-01-18T00:03:56.235Z,48.30
2019-01-18T00:06:26.320Z,48.20
2019-01-18T00:08:56.270Z,48.30
2019-01-18T00:11:26.517Z,48.40
2019-01-18T00:13:56.570Z,48.40
2019-01-18T00:16:27.534Z,48.40
2019-01-18T00:18:58.877Z,48.40
2019-01-18T00:21:28.979Z,48.20
2019-01-18T00:23:58.932Z,48.10
2019-01-18T00:26:29.019Z,48.00
2019-01-18T00:28:59.037Z,48.00
2019-01-18T00:31:29.071Z,48.20
2019-01-18T00:33:59.185Z,48.00
2019-01-18T00:36:30.772Z,47.80
2019-01-18T00:39:00.887Z,48.00
2019-01-18T00:41:30.897Z,47.90
2019-01-18T00:44:00.957Z,47.80
2019-01-18T00:46:30.984Z,47.90
2019-01-18T00:49:01.005Z,48.70
2019-01-18T00:51:31.090Z,48.10
2019-01-18T00:54:01.347Z,48.00
2019-01-18T00:56:31.481Z,47.70
2019-01-18T00:59:01.479Z,47.80
2019-01-18T01:01:32.166Z,47.90
2019-01-18T01:04:02.650Z,47.80
2019-01-18T01:06:32.668Z,47.80
2019-01-18T01:09:02.739Z,47.90
2019-01-18T01:11:33.820Z,48.10
2019-01-18T01:14:03.929Z,48.20
2019-01-18T01:16:34.096Z,48.70
2019-01-18T01:19:04.160Z,48.10
2019-01-18T01:21:34.294Z,48.50
2019-01-18T01:24:04.294Z,48.00
2019-01-18T01:26:34.253Z,48.30
2019-01-18T01:29:04.318Z,48.40
2019-01-18T01:31:34.297Z,48.50
2019-01-18T01:34:04.462Z,48.60
2019-01-18T01:36:34.883Z,48.70
2019-01-18T01:39:08.845Z,48.80
2019-01-18T01:41:39.108Z,48.90
2019-01-18T01:44:09.249Z,49.00
2019-01-18T01:46:39.361Z,49.10
2019-01-18T01:49:09.617Z,49.30
2019-01-18T01:51:39.768Z,49.30
2019-01-18T01:54:10.122Z,49.40
2019-01-18T01:56:40.257Z,49.40
2019-01-18T01:59:10.322Z,49.50
2019-01-18T02:01:40.725Z,49.60
2019-01-18T02:04:10.780Z,49.70
2019-01-18T02:06:40.678Z,49.80
2019-01-18T02:09:10.691Z,49.90
2019-01-18T02:11:41.100Z,50.00
2019-01-18T02:14:10.982Z,50.00
2019-01-18T02:16:43.866Z,50.20
2019-01-18T02:19:15.163Z,50.10
2019-01-18T02:21:45.126Z,50.20
2019-01-18T02:24:15.419Z,50.20
2019-01-18T02:26:45.692Z,50.20
2019-01-18T02:29:15.796Z,50.10
2019-01-18T02:31:46.176Z,50.10
2019-01-18T02:34:16.100Z,50.70
2019-01-18T02:36:46.389Z,50.10
2019-01-18T02:39:16.457Z,50.00
2019-01-18T02:41:46.509Z,49.90
2019-01-18T02:44:16.565Z,49.80
2019-01-18T02:46:46.859Z,49.80
2019-01-18T02:49:16.881Z,49.70
2019-01-18T02:51:46.989Z,49.70
2019-01-18T02:54:17.054Z,49.70
2019-01-18T02:56:47.018Z,49.50
2019-01-18T02:59:17.287Z,49.20
2019-01-18T03:01:47.301Z,49.00
2019-01-18T03:04:26.894Z,48.90
2019-01-18T03:06:57.404Z,48.90
2019-01-18T03:09:27.511Z,48.80
2019-01-18T03:11:57.598Z,48.70
2019-01-18T03:14:27.578Z,48.50
2019-01-18T03:16:57.554Z,48.30
2019-01-18T03:19:27.683Z,48.30
2019-01-18T03:21:57.863Z,48.20
2019-01-18T03:24:28.122Z,48.30
2019-01-18T03:26:58.245Z,48.10
2019-01-18T03:29:28.351Z,48.10
2019-01-18T03:31:58.523Z,48.00
2019-01-18T03:34:29.680Z,48.10
2019-01-18T03:36:59.824Z,48.10
2019-01-18T03:39:30.896Z,48.80
2019-01-18T03:42:01.003Z,48.10
2019-01-18T03:44:31.348Z,48.20
2019-01-18T03:47:01.413Z,48.20
2019-01-18T03:49:31.630Z,48.20
2019-01-18T03:52:01.654Z,48.40
2019-01-18T03:54:31.757Z,48.40
2019-01-18T03:57:01.837Z,48.90
2019-01-18T03:59:32.176Z,48.30
2019-01-18T04:02:02.496Z,48.20
2019-01-18T04:04:32.518Z,48.20
2019-01-18T04:07:02.661Z,48.20
2019-01-18T04:09:32.731Z,48.10
2019-01-18T04:12:02.831Z,48.10
2019-01-18T04:14:33.091Z,48.00
2019-01-18T04:17:03.139Z,48.10
2019-01-18T04:19:33.282Z,48.20
2019-01-18T04:22:03.404Z,48.20
2019-01-18T04:24:34.507Z,48.10
2019-01-18T04:27:04.555Z,48.10
2019-01-18T04:29:34.812Z,48.20
2019-01-18T04:32:05.593Z,48.10
2019-01-18T04:34:35.627Z,48.00
2019-01-18T04:37:05.696Z,48.00
2019-01-18T04:39:38.696Z,48.00
2019-01-18T04:42:08.828Z,48.10
2019-01-18T04:44:38.806Z,48.10
2019-01-18T04:47:08.857Z,48.00
2019-01-18T04:49:39.159Z,48.10
2019-01-18T04:52:09.679Z,48.10
2019-01-18T04:54:39.742Z,48.10
2019-01-18T04:57:09.738Z,48.10
2019-01-18T04:59:39.766Z,48.00
2019-01-18T05:02:09.798Z,48.00
2019-01-18T05:04:39.905Z,47.90
2019-01-18T05:07:09.928Z,47.80
2019-01-18T05:09:40.431Z,47.70
2019-01-18T05:12:10.888Z,47.80
2019-01-18T05:14:40.991Z,47.70
2019-01-18T05:17:11.017Z,47.60
2019-01-18T05:19:41.636Z,47.40
2019-01-18T05:22:11.809Z,47.30
2019-01-18T05:24:49.087Z,47.30
2019-01-18T05:27:13.710Z,47.40
2019-01-18T05:29:43.923Z,47.40
2019-01-18T05:32:13.929Z,47.60
2019-01-18T05:34:44.107Z,47.70
2019-01-18T05:37:15.022Z,48.00
2019-01-18T05:39:45.129Z,48.00
2019-01-18T05:42:15.302Z,48.30
2019-01-18T05:44:45.842Z,48.70
2019-01-18T05:47:15.815Z,49.00
2019-01-18T05:49:46.294Z,49.20
2019-01-18T05:52:16.381Z,49.30
2019-01-18T05:54:46.464Z,49.30
2019-01-18T05:57:16.526Z,49.30
2019-01-18T05:59:46.609Z,49.30
2019-01-18T06:02:16.597Z,49.20
2019-01-18T06:04:48.101Z,49.10
2019-01-18T06:07:18.176Z,49.10
2019-01-18T06:09:48.217Z,48.80
2019-01-18T06:12:18.280Z,48.80
2019-01-18T06:14:48.377Z,48.70
2019-01-18T06:17:18.354Z,48.70
2019-01-18T06:19:48.360Z,48.70
2019-01-18T06:22:18.590Z,48.60
2019-01-18T06:24:48.697Z,48.60
2019-01-18T06:27:20.889Z,48.50
2019-01-18T06:29:50.875Z,48.50
2019-01-18T06:32:21.036Z,48.50
2019-01-18T06:34:51.387Z,48.40
2019-01-18T06:37:21.919Z,48.40
2019-01-18T06:39:52.120Z,48.30
2019-01-18T06:42:22.227Z,48.40
2019-01-18T06:44:52.400Z,48.50
2019-01-18T06:47:22.684Z,48.50
2019-01-18T06:49:52.966Z,48.50
2019-01-18T06:52:23.093Z,48.50
2019-01-18T06:54:53.019Z,48.40
2019-01-18T06:57:23.198Z,48.40
2019-01-18T06:59:53.220Z,48.40
2019-01-18T07:02:23.394Z,48.30
2019-01-18T07:04:54.222Z,48.30
2019-01-18T07:07:24.575Z,48.20
2019-01-18T07:09:54.596Z,48.20
2019-01-18T07:12:24.945Z,48.10
2019-01-18T07:14:54.939Z,48.10
2019-01-18T07:17:25.064Z,48.10
2019-01-18T07:19:56.279Z,48.00
2019-01-18T07:22:26.318Z,48.00
2019-01-18T07:24:56.448Z,48.10
2019-01-18T07:27:26.662Z,48.00
2019-01-18T07:29:56.799Z,47.80
2019-01-18T07:32:26.881Z,47.70
2019-01-18T07:34:57.121Z,47.70
2019-01-18T07:37:28.475Z,47.70
2019-01-18T07:39:59.110Z,47.60
2019-01-18T07:42:29.187Z,47.50
2019-01-18T07:44:59.256Z,47.50
2019-01-18T07:47:29.694Z,47.30
2019-01-18T07:49:59.986Z,47.20
2019-01-18T07:52:31.112Z,47.30
2019-01-18T07:55:02.388Z,47.30
2019-01-18T07:57:32.455Z,47.30
2019-01-18T08:00:03.268Z,47.10
2019-01-18T08:02:33.409Z,47.00
2019-01-18T08:05:03.606Z,47.00
2019-01-18T08:07:33.677Z,46.90
2019-01-18T08:10:03.710Z,47.00
2019-01-18T08:12:33.738Z,46.90
2019-01-18T08:15:03.826Z,46.80
2019-01-18T08:17:33.893Z,46.60
2019-01-18T08:20:04.394Z,46.60
2019-01-18T08:22:34.633Z,46.40
2019-01-18T08:25:05.215Z,46.40
2019-01-18T08:27:35.237Z,46.40
2019-01-18T08:30:07.196Z,46.30
2019-01-18T08:32:37.592Z,46.30
2019-01-18T08:35:07.840Z,46.40
2019-01-18T08:37:38.233Z,46.40
2019-01-18T08:40:10.741Z,46.50
2019-01-18T08:42:40.941Z,46.60
2019-01-18T08:45:16.337Z,46.60
2019-01-18T08:47:46.434Z,46.60
2019-01-18T08:50:16.589Z,46.50
2019-01-18T08:52:46.789Z,46.40
2019-01-18T08:55:17.243Z,46.40
2019-01-18T08:57:47.319Z,46.50
2019-01-18T09:00:19.286Z,46.50
2019-01-18T09:02:49.342Z,46.60
2019-01-18T09:05:21.703Z,46.70
2019-01-18T09:07:52.612Z,46.70
2019-01-18T09:10:23.941Z,46.70
2019-01-18T09:12:54.205Z,46.50
2019-01-18T09:15:24.384Z,46.40
2019-01-18T09:17:54.438Z,46.50
2019-01-18T09:20:26.340Z,46.50
2019-01-18T09:22:56.435Z,46.40
2019-01-18T09:25:26.574Z,46.20
2019-01-18T09:27:56.682Z,46.00
2019-01-18T09:30:30.990Z,45.80
2019-01-18T09:33:16.803Z,45.80
2019-01-18T09:35:48.594Z,45.60
2019-01-18T09:38:36.539Z,45.50
2019-01-18T09:41:08.925Z,45.30
2019-01-18T09:43:42.550Z,45.30
2019-01-18T09:46:12.856Z,45.30
2019-01-18T09:48:43.032Z,45.50
2019-01-18T09:51:13.152Z,45.60
2019-01-18T09:53:43.377Z,45.70
2019-01-18T09:56:14.033Z,45.50
2019-01-18T09:58:44.116Z,45.20
2019-01-18T10:01:14.474Z,45.00
2019-01-18T10:03:44.513Z,44.60
2019-01-18T10:06:14.798Z,44.50
2019-01-18T10:08:45.406Z,44.20
2019-01-18T10:11:15.419Z,44.10
2019-01-18T10:13:45.899Z,43.90
2019-01-18T10:16:16.067Z,43.90
2019-01-18T10:18:46.196Z,44.00
2019-01-18T10:21:17.148Z,44.30
2019-01-18T10:23:47.261Z,44.30
2019-01-18T10:26:17.441Z,43.90
2019-01-18T10:28:50.444Z,43.80
2019-01-18T10:31:20.586Z,43.40
2019-01-18T10:33:51.101Z,43.10
2019-01-18T10:36:21.684Z,42.90
2019-01-18T10:38:51.855Z,42.70
2019-01-18T10:41:22.115Z,42.30
2019-01-18T10:43:52.617Z,42.00
2019-01-18T10:46:22.954Z,41.90
2019-01-18T10:48:53.095Z,41.70
2019-01-18T10:51:23.552Z,41.20
2019-01-18T10:53:54.383Z,41.20
2019-01-18T10:56:24.586Z,41.40
2019-01-18T10:58:54.963Z,41.00
2019-01-18T11:01:25.813Z,40.90
2019-01-18T11:03:56.057Z,40.90
2019-01-18T11:06:26.309Z,40.60
2019-01-18T11:08:58.053Z,40.50
2019-01-18T11:11:28.539Z,39.40
2019-01-18T11:13:58.935Z,38.80
2019-01-18T11:16:29.640Z,38.70
2019-01-18T11:19:00.109Z,38.70
2019-01-18T11:21:33.207Z,38.80
2019-01-18T11:24:03.732Z,38.90
2019-01-18T11:26:34.229Z,39.20
2019-01-18T11:29:04.529Z,39.40
2019-01-18T11:31:34.844Z,39.40
2019-01-18T11:34:04.946Z,39.20
2019-01-18T11:37:08.436Z,38.50
2019-01-18T11:39:58.472Z,38.50
2019-01-18T11:42:41.967Z,38.20
2019-01-18T11:45:12.118Z,38.10
2019-01-18T11:47:44.227Z,38.30
2019-01-18T11:50:16.683Z,38.00
2019-01-18T11:52:46.874Z,38.30
2019-01-18T11:55:17.428Z,38.10
2019-01-18T11:57:47.715Z,37.90
2019-01-18T12:00:20.234Z,37.90
2019-01-18T12:02:50.349Z,37.90
2019-01-18T12:05:21.695Z,37.80
2019-01-18T12:07:51.908Z,37.60
2019-01-18T12:10:27.046Z,37.50
2019-01-18T12:12:57.621Z,37.30
2019-01-18T12:15:28.105Z,37.10
2019-01-18T12:17:58.615Z,37.20
2019-01-18T12:20:34.308Z,37.10
2019-01-18T12:23:05.146Z,36.70
2019-01-18T12:25:35.728Z,36.40
2019-01-18T12:28:06.834Z,36.30
2019-01-18T12:30:37.392Z,36.20
2019-01-18T12:33:07.811Z,36.00
2019-01-18T12:35:38.257Z,35.90
2019-01-18T12:38:08.413Z,36.10
2019-01-18T12:40:38.682Z,36.00
2019-01-18T12:43:08.880Z,36.10
2019-01-18T12:45:39.325Z,35.50
2019-01-18T12:48:09.528Z,35.60
2019-01-18T12:50:41.296Z,35.40
2019-01-18T12:53:11.546Z,36.20
2019-01-18T12:55:41.916Z,35.60
2019-01-18T12:58:12.159Z,35.60
2019-01-18T13:00:42.609Z,35.10
2019-01-18T13:03:12.911Z,34.80
2019-01-18T13:05:45.669Z,34.90
2019-01-18T13:08:16.048Z,34.30
2019-01-18T13:10:46.231Z,33.80
2019-01-18T13:13:16.963Z,33.70
2019-01-18T13:16:17.475Z,33.60
2019-01-18T13:18:51.283Z,33.70
2019-01-18T13:21:21.518Z,33.90
2019-01-18T13:23:51.723Z,33.60
2019-01-18T13:26:21.608Z,33.50
2019-01-18T13:28:51.663Z,33.00
2019-01-18T13:31:21.679Z,33.00
2019-01-18T13:33:52.081Z,32.60
2019-01-18T13:36:22.108Z,32.70
2019-01-18T13:38:52.509Z,32.80
2019-01-18T13:41:24.138Z,32.50
2019-01-18T13:43:59.939Z,32.30
2019-01-18T13:46:30.064Z,31.90
2019-01-18T13:49:00.456Z,31.90
2019-01-18T13:51:30.591Z,32.00
2019-01-18T13:54:00.690Z,31.50
2019-01-18T13:56:31.276Z,31.60
2019-01-18T13:59:02.135Z,31.30
2019-01-18T14:01:32.435Z,31.00
2019-01-18T14:04:02.607Z,31.00
2019-01-18T14:06:33.319Z,30.50
2019-01-18T14:09:04.431Z,31.00
2019-01-18T14:11:35.414Z,31.10
2019-01-18T14:14:05.933Z,31.10
2019-01-18T14:16:36.309Z,31.20
2019-01-18T14:19:06.995Z,31.30
2019-01-18T14:21:37.752Z,31.40
2019-01-18T14:24:08.229Z,31.30
2019-01-18T14:26:38.496Z,31.40
2019-01-18T14:29:08.956Z,31.50
2019-01-18T14:31:39.096Z,31.60
2019-01-18T14:34:09.451Z,31.60
2019-01-18T14:36:39.987Z,31.60
2019-01-18T14:39:11.616Z,31.50
2019-01-18T14:41:42.370Z,31.30
2019-01-18T14:44:12.545Z,31.20
2019-01-18T14:46:43.053Z,30.80
2019-01-18T14:49:21.946Z,30.70
2019-01-18T14:51:52.268Z,30.50
2019-01-18T14:54:22.699Z,30.40
2019-01-18T14:56:53.683Z,30.30
2019-01-18T14:59:24.097Z,30.20
2019-01-18T15:01:54.386Z,30.20
2019-01-18T15:04:24.486Z,30.50
2019-01-18T15:06:54.672Z,30.40
2019-01-18T15:09:24.907Z,30.00
2019-01-18T15:11:55.987Z,30.00
2019-01-18T15:14:26.091Z,30.20
2019-01-18T15:16:56.368Z,30.20
2019-01-18T15:19:27.008Z,30.10
2019-01-18T15:21:57.144Z,30.30
2019-01-18T15:24:27.328Z,30.50
2019-01-18T15:26:57.559Z,30.70
2019-01-18T15:29:28.153Z,31.30
2019-01-18T15:31:59.106Z,30.80
2019-01-18T15:34:29.271Z,30.90
2019-01-18T15:36:59.713Z,31.00
2019-01-18T15:39:30.134Z,31.10
2019-01-18T15:42:01.147Z,31.10
2019-01-18T15:44:31.546Z,31.10
2019-01-18T15:47:02.318Z,31.10
2019-01-18T15:49:32.743Z,31.10
2019-01-18T15:52:03.331Z,31.10
2019-01-18T15:54:34.137Z,31.00
2019-01-18T15:57:04.436Z,31.00
2019-01-18T15:59:34.701Z,31.20
2019-01-18T16:02:04.817Z,31.20
2019-01-18T16:04:35.149Z,31.20
2019-01-18T16:07:05.705Z,31.30
2019-01-18T16:09:36.725Z,31.30
2019-01-18T16:12:06.919Z,31.40
2019-01-18T16:14:36.917Z,31.50
2019-01-18T16:17:15.650Z,31.70
2019-01-18T16:19:45.932Z,31.90
2019-01-18T16:22:16.043Z,32.20
2019-01-18T16:24:46.308Z,32.20
2019-01-18T16:27:16.612Z,32.40
2019-01-18T16:29:46.859Z,32.60
2019-01-18T16:32:17.323Z,32.80
2019-01-18T16:34:48.153Z,33.10
2019-01-18T16:37:18.671Z,33.10
2019-01-18T16:39:49.629Z,33.30
2019-01-18T16:42:21.123Z,33.40
2019-01-18T16:44:51.657Z,33.70
2019-01-18T16:47:22.081Z,33.90
2019-01-18T16:49:52.386Z,34.10
2019-01-18T16:52:22.922Z,34.30
2019-01-18T16:54:53.445Z,34.40
2019-01-18T16:57:24.806Z,34.70
2019-01-18T16:59:55.279Z,34.90
2019-01-18T17:02:25.382Z,35.10
2019-01-18T17:04:56.317Z,35.30
2019-01-18T17:07:26.589Z,35.30
2019-01-18T17:09:58.208Z,35.60
2019-01-18T17:12:28.397Z,35.70
2019-01-18T17:14:58.812Z,36.00
2019-01-18T17:17:28.820Z,36.10
2019-01-18T17:19:59.011Z,36.30
2019-01-18T17:22:29.224Z,36.30
2019-01-18T17:24:59.696Z,36.50
2019-01-18T17:27:30.021Z,36.40
2019-01-18T17:30:00.236Z,36.30
2019-01-18T17:32:30.181Z,36.30
2019-01-18T17:35:00.366Z,36.20
2019-01-18T17:37:38.122Z,36.40
2019-01-18T17:40:31.332Z,36.40
2019-01-18T17:43:49.152Z,36.50
2019-01-18T17:46:29.903Z,37.20
2019-01-18T17:49:27.171Z,36.70
2019-01-18T17:52:27.981Z,36.80
2019-01-18T17:55:50.794Z,36.80
2019-01-18T17:58:48.674Z,37.00
2019-01-18T18:01:46.933Z,37.40
2019-01-18T18:04:54.244Z,37.50
2019-01-18T18:08:11.290Z,37.60
2019-01-18T18:11:19.559Z,37.90
2019-01-18T18:14:17.837Z,37.90
2019-01-18T18:17:27.718Z,38.00
2019-01-18T18:20:38.960Z,38.20
2019-01-18T18:23:38.716Z,38.40
2019-01-18T18:26:46.017Z,38.50
2019-01-18T18:29:41.719Z,38.70
2019-01-18T18:33:01.873Z,38.80
2019-01-18T18:36:10.310Z,38.80
2019-01-18T18:39:33.568Z,39.00
2019-01-18T18:42:38.028Z,39.10
2019-01-18T18:45:52.039Z,39.20
2019-01-18T18:48:52.082Z,39.20
2019-01-18T18:52:06.355Z,39.30
2019-01-18T18:55:15.948Z,39.30
2019-01-18T18:58:51.528Z,39.40
2019-01-18T19:02:23.950Z,39.40
2019-01-18T19:05:27.300Z,39.30
2019-01-18T19:08:34.136Z,39.30
2019-01-18T19:11:32.829Z,39.40
2019-01-18T19:14:39.511Z,39.50
2019-01-18T19:17:37.137Z,39.60
2019-01-18T19:20:46.706Z,39.70
2019-01-18T19:23:55.271Z,39.80
2019-01-18T19:27:30.732Z,39.90
2019-01-18T19:30:30.276Z,39.90
2019-01-18T19:33:53.967Z,40.00
2019-01-18T19:37:00.156Z,40.20
2019-01-18T19:40:30.215Z,40.20
2019-01-18T19:43:25.839Z,40.40
2019-01-18T19:46:27.748Z,40.30
2019-01-18T19:49:27.215Z,40.30
2019-01-18T19:52:34.873Z,40.40
2019-01-18T19:55:16.014Z,40.40
2019-01-18T19:58:10.771Z,40.50
2019-01-18T20:01:06.494Z,40.60
2019-01-18T20:04:04.097Z,40.50
2019-01-18T20:07:08.833Z,40.50
2019-01-18T20:10:25.827Z,40.50
2019-01-18T20:13:41.061Z,40.50
2019-01-18T20:16:51.372Z,40.40
2019-01-18T20:20:03.915Z,40.40
2019-01-18T20:23:00.011Z,40.70
2019-01-18T20:25:52.256Z,40.70
2019-01-18T20:28:41.600Z,40.70
2019-01-18T20:31:44.154Z,40.80
2019-01-18T20:34:53.160Z,40.90
2019-01-18T20:37:51.741Z,41.10
2019-01-18T20:40:39.173Z,41.10
2019-01-18T20:43:43.362Z,41.20
2019-01-18T20:46:57.565Z,41.10
2019-01-18T20:49:53.644Z,41.10
2019-01-18T20:52:57.910Z,41.40
2019-01-18T20:56:02.463Z,41.30
2019-01-18T20:58:50.682Z,41.20
2019-01-18T21:01:49.033Z,41.20
2019-01-18T21:04:57.779Z,41.20
2019-01-18T21:07:43.425Z,41.10
2019-01-18T21:10:52.061Z,41.10
2019-01-18T21:14:09.341Z,41.00
2019-01-18T21:17:15.301Z,40.90
2019-01-18T21:20:17.588Z,40.70
2019-01-18T21:23:24.913Z,40.90
2019-01-18T21:26:11.138Z,40.80
2019-01-18T21:29:23.684Z,40.90
2019-01-18T21:32:33.047Z,41.00
2019-01-18T21:35:35.527Z,41.00
2019-01-18T21:38:49.994Z,41.00
2019-01-18T21:42:11.081Z,41.10
2019-01-18T21:45:08.828Z,41.10
2019-01-18T21:48:02.030Z,41.20
2019-01-18T21:51:16.519Z,41.20
2019-01-18T21:54:38.038Z,41.20
2019-01-18T21:57:40.767Z,41.10
2019-01-18T22:01:06.310Z,41.30
2019-01-18T22:04:04.484Z,41.30
2019-01-18T22:07:02.665Z,41.30
2019-01-18T22:10:13.003Z,41.50
2019-01-18T22:13:23.911Z,41.40
2019-01-18T22:16:35.668Z,41.40
2019-01-18T22:19:52.849Z,41.20
2019-01-18T22:23:03.571Z,41.30
2019-01-18T22:26:18.180Z,41.30
2019-01-18T22:29:32.365Z,41.40
2019-01-18T22:32:52.804Z,41.50
2019-01-18T22:36:09.899Z,41.50
2019-01-18T22:39:21.940Z,41.40
2019-01-18T22:42:32.312Z,41.50
2019-01-18T22:45:24.178Z,41.70
2019-01-18T22:48:16.485Z,42.00
2019-01-18T22:51:24.024Z,42.00
2019-01-18T22:54:04.934Z,42.10
2019-01-18T22:57:13.403Z,42.20
2019-01-18T23:00:33.713Z,42.30
2019-01-18T23:03:45.983Z,42.40
2019-01-18T23:06:47.710Z,42.30
2019-01-18T23:09:53.933Z,42.20
2019-01-18T23:13:17.053Z,42.20
2019-01-18T23:16:36.600Z,42.00
2019-01-18T23:19:51.595Z,41.90
2019-01-18T23:22:40.576Z,41.90
2019-01-18T23:25:39.933Z,41.80
2019-01-18T23:28:48.611Z,42.00
2019-01-18T23:31:29.152Z,42.00
2019-01-18T23:34:28.274Z,42.00
2019-01-18T23:37:27.272Z,42.00
2019-01-18T23:40:56.664Z,42.00
2019-01-18T23:43:39.715Z,41.90
2019-01-18T23:46:45.569Z,41.70
2019-01-18T23:49:40.768Z,41.70
2019-01-18T23:52:32.630Z,42.30
2019-01-18T23:55:37.940Z,41.70
2019-01-18T23:58:51.038Z,41.70
